Gunter Afs, AL (36114)

02:02 CDT le 21 octobre 2014 (GMT -0500)
Forest Hills | Change Station
CLOSE
Current Station
Stations météorologiques personnelles
Location: Montgomery, AL
Altitude: 223 ft
Stations météo à proximité

Alt. 223 ft 32.38 °N, 86.26 °W | Updated 9 seconds ago

Ciel dégagé
Ciel dégagé
54.6 ° F
Paraît 54.6 ° F
N
0.0
Vent Variable Vent de ONO
Gusts 0.0 mph

Aujourd'hui
Haut(e) -- | Bas -- ° F
--% Risque de précip.
Hier
Haut(e) -- | Bas -- ° F
Precip. -- pouce
6:53 AM 6:05 PM
Lune descendante, 7% visible
Pression 30.02 pouce
Visibilité 9.0 Miles terrestres
Nuages Ciel dégagé
Point de rosée 52 ° F
Humidité 92%
Précipitations 0.00 pouce
Profondeur de la couche neigeuse Non disponible.
UV 0 sur 12
Pollen 2.20 sur 12
Qualité de l'air Non disponible.
Flu Activity Sporadic
METAR KMXF 210658Z AUTO 00000KT 9SM CLR 12/12 A3001 RMK AO2 SLP164 T01150115

More Conditions Fewer Conditions

Pression 30.02 pouce
Visibilité 9.0 Miles terrestres
Nuages Ciel dégagé
Point de rosée 52 ° F
Humidité 92%
Précipitations 0.00 pouce
Profondeur de la couche neigeuse Non disponible.
UV 0 sur 12
Pollen 2.20 sur 12
Qualité de l'air Non disponible.
Flu Activity Sporadic
METAR KMXF 210658Z AUTO 00000KT 9SM CLR 12/12 A3001 RMK AO2 SLP164 T01150115

More Conditions Fewer Conditions

10-Day Weather Forecast

Almanac

Astronomie

Oct. 21, 2014 Lever Coucher
Temps réel 06:53 CDT 18:05 CDT
Crépuscule civil 06:28 CDT 18:30 CDT
Crépuscule nautique 05:59 CDT 18:59 CDT
Crépuscule astronomique 05:31 CDT 19:27 CDT
Lune 04:44 CDT 16:53 CDT
Durée de lumière visible 12h 02m
Longueur du jour
11h 12m
Tomorrow will be 1m 51s shorter.
Lune descendante, 7% of the Moon is Illuminated
Aujourd'hui
Lune descendante
Oct 23
Nouveau
Oct 30
Premier quartier
Nov 6
Pleine lune
Nov 14
Dernier quartier

Extrêmes aujourd'hui

State Highs State Lows

Community

WunderPhotos

Upload Photos

1,763,619 Photos téléchargées !

Nearby

Épaisseur de neige

Station Depth Altitude
Pas de nouvelles chutes de neige

Activité sismique

Ville Distance Mag. Time & Date
No recent earthquake activity has been reported nearby.
Minimum magnitude displayed is 2.5.

Températures des eaux côtières

Lieu Température
Aucun rapport de station

Stations météo à proximité